Terminal Aerodrome Forecast
Issued by NWS

Home | Current Version | Previous Version | Text Only | Print | Product List | Glossary On
Versions: 1 2 3 4 5 6 7 8 9 10 11
812
FTUS42 TJSJ 240407 AAC
TAFJSJ
TAF AMD
TJSJ 240407Z 2404/2424 10010KT P6SM VCSH FEW022 SCT035 BKN050
      TEMPO 2404/2405 6SM +RA SCT015 BKN030
     FM240630 12004KT P6SM VCSH SCT025 BKN050
     FM241450 10012KT P6SM SCT030 BKN060 BKN100
     FM242230 09010KT P6SM FEW030 SCT060 SCT100=

USA.gov is the U.S. government's official web portal to all federal, state and local government web resources and services.